Time;durP1;ratioP1;P1;durP2;ratioP2;P2;SDS_P1;SDS_P2;PMS_P1;PMS_P2;Temp;Humidity;BMP_temperature;BMP_pressure;BME280_temperature;BME280_humidity;BME280_pressure;Samples;Min_cycle;Max_cycle;Signal;HPM_P1;HPM_P2
2023/08/12 00:01:32;;;;;;;4.70;2.97;;;;;;;;;;4992613;28;99085;-71
2023/08/12 00:03:59;;;;;;;5.43;3.33;;;;;;;;;;4992248;28;98260;-70
2023/08/12 00:06:26;;;;;;;5.32;3.40;;;;;;;;;;4992106;28;98551;-71
2023/08/12 00:08:52;;;;;;;5.53;3.10;;;;;;;;;;4991827;28;100063;-72
2023/08/12 00:11:18;;;;;;;7.18;3.83;;;;;;;;;;4991127;28;98808;-71
2023/08/12 00:13:45;;;;;;;7.10;3.33;;;;;;;;;;4995132;28;98794;-71
2023/08/12 00:16:11;;;;;;;6.55;3.53;;;;;;;;;;4991014;28;98243;-72
2023/08/12 00:18:38;;;;;;;8.55;3.60;;;;;;;;;;4992474;28;98425;-72
2023/08/12 00:21:10;;;;;;;6.90;3.85;;;;;;;;;;4988532;28;99056;-71
2023/08/12 00:23:37;;;;;;;12.70;3.83;;;;;;;;;;4989034;28;98356;-71
2023/08/12 00:26:04;;;;;;;7.90;4.13;;;;;;;;;;4991570;28;98453;-72
2023/08/12 00:28:30;;;;;;;5.55;4.00;;;;;;;;;;4991118;28;99020;-73
2023/08/12 00:30:57;;;;;;;7.63;4.55;;;;;;;;;;4991434;28;98157;-71
2023/08/12 00:33:23;;;;;;;5.70;4.05;;;;;;;;;;4992117;28;98701;-71
2023/08/12 00:35:50;;;;;;;6.00;4.65;;;;;;;;;;4994508;28;101641;-71
2023/08/12 00:38:16;;;;;;;9.20;4.65;;;;;;;;;;4991505;28;99337;-73
2023/08/12 00:40:43;;;;;;;6.88;4.50;;;;;;;;;;4991886;28;99117;-72
2023/08/12 00:43:09;;;;;;;8.50;5.13;;;;;;;;;;4975778;28;99011;-71
2023/08/12 00:45:36;;;;;;;7.65;5.28;;;;;;;;;;4970287;28;98512;-70
2023/08/12 00:48:03;;;;;;;6.05;4.68;;;;;;;;;;4971813;28;98909;-72
2023/08/12 00:50:30;;;;;;;7.68;4.90;;;;;;;;;;4971650;28;98199;-72
2023/08/12 00:52:58;;;;;;;9.40;5.18;;;;;;;;;;4978938;28;98616;-72
2023/08/12 00:55:24;;;;;;;9.90;5.38;;;;;;;;;;4991221;28;98908;-71
2023/08/12 00:57:51;;;;;;;8.52;5.45;;;;;;;;;;4993167;28;98169;-73
2023/08/12 01:00:20;;;;;;;8.80;5.57;;;;;;;;;;4989036;28;101496;-73
2023/08/12 01:02:48;;;;;;;9.90;5.30;;;;;;;;;;4991896;28;98328;-72
2023/08/12 01:05:16;;;;;;;8.07;5.53;;;;;;;;;;4990794;28;98445;-72
2023/08/12 01:07:42;;;;;;;7.78;5.22;;;;;;;;;;4991357;28;99517;-71
2023/08/12 01:10:14;;;;;;;8.73;5.43;;;;;;;;;;4990458;28;98169;-72
2023/08/12 01:12:53;;;;;;;7.78;5.38;;;;;;;;;;4988608;28;98780;-73
2023/08/12 01:15:24;;;;;;;9.05;5.43;;;;;;;;;;4990774;28;98905;-72
2023/08/12 01:17:53;;;;;;;6.87;5.80;;;;;;;;;;4991420;28;98318;-72
2023/08/12 01:20:24;;;;;;;8.02;6.03;;;;;;;;;;4989464;28;100209;-72
2023/08/12 01:22:58;;;;;;;9.60;5.93;;;;;;;;;;4991458;28;97999;-72
2023/08/12 01:25:25;;;;;;;10.43;7.15;;;;;;;;;;4990632;28;98732;-72
2023/08/12 01:27:51;;;;;;;10.40;6.35;;;;;;;;;;4989447;28;100944;-71
2023/08/12 01:30:19;;;;;;;17.60;7.25;;;;;;;;;;4990793;28;98193;-71
2023/08/12 01:33:05;;;;;;;11.07;7.18;;;;;;;;;;4991333;28;98690;-72
2023/08/12 01:35:35;;;;;;;6.75;6.00;;;;;;;;;;4987904;28;100911;-72
2023/08/12 01:38:03;;;;;;;12.18;7.72;;;;;;;;;;4991186;28;98158;-71
2023/08/12 01:40:31;;;;;;;15.23;6.90;;;;;;;;;;4986402;28;101399;-72
2023/08/12 01:42:58;;;;;;;11.20;6.10;;;;;;;;;;4992381;28;101008;-71
2023/08/12 01:45:24;;;;;;;12.88;7.60;;;;;;;;;;4990648;28;98913;-72
2023/08/12 01:47:51;;;;;;;15.43;8.05;;;;;;;;;;4990020;28;99345;-72
2023/08/12 01:50:19;;;;;;;15.32;7.65;;;;;;;;;;4988892;28;98249;-71
2023/08/12 01:52:45;;;;;;;11.95;7.50;;;;;;;;;;4989455;28;99723;-72
2023/08/12 01:55:12;;;;;;;17.52;8.05;;;;;;;;;;4989506;28;99278;-71
2023/08/12 01:57:38;;;;;;;10.50;7.22;;;;;;;;;;4990164;28;98277;-72
2023/08/12 02:00:06;;;;;;;14.00;6.63;;;;;;;;;;4990103;28;98773;-71
2023/08/12 02:02:41;;;;;;;9.55;6.93;;;;;;;;;;4967673;28;98618;-71
2023/08/12 02:05:08;;;;;;;12.68;7.10;;;;;;;;;;4974306;28;98559;-71
2023/08/12 02:07:35;;;;;;;17.08;7.30;;;;;;;;;;4968972;28;100113;-72
2023/08/12 02:10:01;;;;;;;12.73;7.38;;;;;;;;;;4970081;28;98247;-72
2023/08/12 02:12:27;;;;;;;8.95;7.32;;;;;;;;;;4970519;28;98462;-71
2023/08/12 02:14:54;;;;;;;11.38;7.10;;;;;;;;;;4970171;28;98771;-72
2023/08/12 02:17:20;;;;;;;12.48;7.85;;;;;;;;;;4971472;28;98766;-72
2023/08/12 02:19:47;;;;;;;11.65;7.43;;;;;;;;;;4990408;28;98199;-72
2023/08/12 02:22:13;;;;;;;12.63;8.23;;;;;;;;;;4988044;28;101184;-71
2023/08/12 02:24:40;;;;;;;16.08;7.57;;;;;;;;;;4992039;28;99269;-72
2023/08/12 02:27:06;;;;;;;10.85;8.35;;;;;;;;;;4988409;28;101008;-72
2023/08/12 02:29:33;;;;;;;13.63;7.97;;;;;;;;;;4987864;28;98180;-72
2023/08/12 02:31:59;;;;;;;14.57;7.43;;;;;;;;;;4989598;28;98375;-71
2023/08/12 02:34:28;;;;;;;11.55;6.90;;;;;;;;;;4993745;28;98643;-73
2023/08/12 02:36:54;;;;;;;9.95;7.00;;;;;;;;;;5007993;28;98388;-72
2023/08/12 02:39:20;;;;;;;8.60;6.90;;;;;;;;;;5010265;28;98232;-73
2023/08/12 02:41:47;;;;;;;11.93;7.40;;;;;;;;;;5010196;28;99253;-71
2023/08/12 02:44:13;;;;;;;12.77;7.03;;;;;;;;;;4973013;28;98217;-72
2023/08/12 02:46:40;;;;;;;16.05;7.90;;;;;;;;;;4973364;28;98284;-73
2023/08/12 02:49:06;;;;;;;13.05;7.88;;;;;;;;;;4967869;28;98292;-71
2023/08/12 02:51:33;;;;;;;12.93;8.25;;;;;;;;;;4973865;28;98736;-72
2023/08/12 02:53:59;;;;;;;11.93;7.55;;;;;;;;;;4989553;28;98922;-72
2023/08/12 02:56:26;;;;;;;15.65;8.93;;;;;;;;;;4987910;28;98246;-72
2023/08/12 02:58:52;;;;;;;12.60;8.63;;;;;;;;;;4989051;28;98275;-71
2023/08/12 03:01:20;;;;;;;13.05;8.00;;;;;;;;;;4978511;28;99226;-72
2023/08/12 03:03:46;;;;;;;18.88;9.93;;;;;;;;;;4990110;28;98190;-71
2023/08/12 03:06:13;;;;;;;13.80;9.40;;;;;;;;;;4987541;28;100285;-70
2023/08/12 03:08:39;;;;;;;14.50;9.13;;;;;;;;;;4991674;28;101780;-71
2023/08/12 03:11:07;;;;;;;16.33;9.20;;;;;;;;;;4988492;28;100830;-72
2023/08/12 03:13:34;;;;;;;15.80;8.63;;;;;;;;;;4986037;28;98764;-72
2023/08/12 03:16:01;;;;;;;13.43;9.75;;;;;;;;;;4988207;28;99605;-71
2023/08/12 03:18:28;;;;;;;14.55;9.80;;;;;;;;;;4987852;28;98928;-72
2023/08/12 03:20:55;;;;;;;20.17;9.18;;;;;;;;;;4986832;28;102029;-71
2023/08/12 03:23:23;;;;;;;14.70;9.63;;;;;;;;;;4987747;28;98219;-72
2023/08/12 03:25:50;;;;;;;11.45;9.15;;;;;;;;;;4988473;28;98658;-73
2023/08/12 03:28:17;;;;;;;22.02;9.75;;;;;;;;;;4986180;28;101463;-71
2023/08/12 03:30:52;;;;;;;15.10;9.50;;;;;;;;;;4989202;28;98114;-72
2023/08/12 03:33:21;;;;;;;23.20;10.75;;;;;;;;;;4986187;28;98983;-73
2023/08/12 03:35:48;;;;;;;16.45;10.40;;;;;;;;;;4987925;28;98261;-72
2023/08/12 03:38:15;;;;;;;17.33;10.02;;;;;;;;;;4987160;28;98643;-72
2023/08/12 03:40:43;;;;;;;14.40;10.35;;;;;;;;;;4987117;28;101783;-72
2023/08/12 03:43:12;;;;;;;14.82;11.18;;;;;;;;;;4988183;28;98344;-71
2023/08/12 03:45:41;;;;;;;19.02;10.48;;;;;;;;;;4987741;28;100999;-73
2023/08/12 03:48:09;;;;;;;18.33;10.55;;;;;;;;;;4986737;28;101663;-72
2023/08/12 03:50:39;;;;;;;17.30;10.35;;;;;;;;;;4988570;28;98216;-71
2023/08/12 03:53:05;;;;;;;16.60;10.82;;;;;;;;;;4990709;28;100552;-72
2023/08/12 03:55:33;;;;;;;18.05;9.85;;;;;;;;;;4986668;28;98532;-72
2023/08/12 03:58:00;;;;;;;14.18;10.23;;;;;;;;;;4987461;28;98621;-72
2023/08/12 04:00:28;;;;;;;22.70;10.18;;;;;;;;;;4984930;28;99956;-72
2023/08/12 04:02:58;;;;;;;15.85;10.05;;;;;;;;;;4978268;28;98142;-72
2023/08/12 04:05:24;;;;;;;16.48;10.80;;;;;;;;;;4984422;28;101105;-72
2023/08/12 04:07:51;;;;;;;17.48;10.18;;;;;;;;;;4971079;28;99159;-72
2023/08/12 04:10:17;;;;;;;14.13;10.55;;;;;;;;;;4968660;28;98187;-72
2023/08/12 04:12:44;;;;;;;19.85;11.02;;;;;;;;;;4968837;28;99523;-71
2023/08/12 04:15:11;;;;;;;18.55;10.82;;;;;;;;;;4970457;28;98234;-71
2023/08/12 04:17:39;;;;;;;24.02;10.95;;;;;;;;;;4980907;28;100177;-72
2023/08/12 04:20:06;;;;;;;15.00;11.25;;;;;;;;;;4988307;28;99387;-71
2023/08/12 04:22:34;;;;;;;15.65;10.63;;;;;;;;;;4985895;28;98382;-72
2023/08/12 04:25:02;;;;;;;19.63;10.98;;;;;;;;;;4986656;28;100304;-72
2023/08/12 04:27:28;;;;;;;15.38;11.45;;;;;;;;;;4985626;28;98107;-72
2023/08/12 04:29:55;;;;;;;18.23;11.07;;;;;;;;;;4986223;28;98299;-71
2023/08/12 04:32:22;;;;;;;18.52;11.02;;;;;;;;;;4985775;28;98738;-72
2023/08/12 04:34:49;;;;;;;18.02;11.05;;;;;;;;;;4985924;28;98865;-72
2023/08/12 04:37:15;;;;;;;18.17;10.68;;;;;;;;;;4985833;28;100285;-72
2023/08/12 04:39:43;;;;;;;12.88;10.68;;;;;;;;;;4987130;28;99001;-72
2023/08/12 04:42:10;;;;;;;16.13;10.68;;;;;;;;;;4986827;28;99219;-71
2023/08/12 04:44:37;;;;;;;17.83;10.95;;;;;;;;;;4971581;28;100177;-71
2023/08/12 04:47:04;;;;;;;21.40;12.75;;;;;;;;;;4969353;28;99162;-72
2023/08/12 04:49:33;;;;;;;18.77;11.10;;;;;;;;;;4969941;28;98371;-72
2023/08/12 04:52:00;;;;;;;19.52;11.43;;;;;;;;;;4985592;28;101093;-72
2023/08/12 04:54:26;;;;;;;14.48;10.20;;;;;;;;;;4989346;28;101762;-72
2023/08/12 04:56:56;;;;;;;19.90;12.13;;;;;;;;;;4993372;28;98237;-73
2023/08/12 04:59:22;;;;;;;13.40;10.93;;;;;;;;;;4988363;28;99104;-71
2023/08/12 05:01:51;;;;;;;19.58;11.45;;;;;;;;;;4991224;28;98175;-72
2023/08/12 05:04:31;;;;;;;24.33;12.30;;;;;;;;;;4989326;28;99359;-71
2023/08/12 05:06:57;;;;;;;20.50;11.90;;;;;;;;;;4971433;28;99064;-72
2023/08/12 05:09:24;;;;;;;16.35;11.60;;;;;;;;;;4989895;28;98310;-71
2023/08/12 05:11:51;;;;;;;17.38;11.80;;;;;;;;;;4982250;28;99891;-72
2023/08/12 05:14:17;;;;;;;17.85;12.40;;;;;;;;;;4968980;28;101629;-70
2023/08/12 05:16:44;;;;;;;17.20;12.35;;;;;;;;;;4977571;28;98289;-72
2023/08/12 05:19:10;;;;;;;15.55;12.02;;;;;;;;;;4992287;28;101035;-72
2023/08/12 05:21:37;;;;;;;17.42;11.60;;;;;;;;;;4989606;28;98308;-71
2023/08/12 05:24:03;;;;;;;19.35;11.30;;;;;;;;;;4990888;28;99378;-73
2023/08/12 05:26:30;;;;;;;17.52;10.73;;;;;;;;;;5001581;28;98954;-73
2023/08/12 05:28:56;;;;;;;12.75;7.78;;;;;;;;;;4970145;28;98222;-73
2023/08/12 05:31:23;;;;;;;8.85;6.65;;;;;;;;;;4970473;28;98873;-72
2023/08/12 05:33:50;;;;;;;10.85;5.95;;;;;;;;;;4970482;28;98964;-73
2023/08/12 05:36:17;;;;;;;13.65;9.68;;;;;;;;;;4970752;28;98310;-73
2023/08/12 05:38:43;;;;;;;18.55;10.40;;;;;;;;;;4971252;28;98784;-74
2023/08/12 05:41:10;;;;;;;13.75;9.73;;;;;;;;;;4974542;28;98922;-72
2023/08/12 05:43:36;;;;;;;15.60;9.52;;;;;;;;;;4990887;28;98722;-73
2023/08/12 05:46:03;;;;;;;16.30;10.13;;;;;;;;;;4990487;28;100139;-72
2023/08/12 05:48:29;;;;;;;17.00;9.95;;;;;;;;;;4989425;28;98232;-72
2023/08/12 05:50:56;;;;;;;15.70;10.18;;;;;;;;;;4990379;28;99266;-71
2023/08/12 05:53:22;;;;;;;17.63;10.23;;;;;;;;;;4990294;28;98010;-72
2023/08/12 05:55:49;;;;;;;16.70;9.63;;;;;;;;;;4989895;28;98318;-72
2023/08/12 05:58:15;;;;;;;24.27;10.25;;;;;;;;;;4990440;28;98524;-71
2023/08/12 06:00:45;;;;;;;18.25;10.52;;;;;;;;;;4988364;28;101545;-72
2023/08/12 06:03:12;;;;;;;15.48;10.27;;;;;;;;;;4994427;28;98198;-70
2023/08/12 06:05:40;;;;;;;14.57;10.88;;;;;;;;;;4989791;28;100032;-72
2023/08/12 06:08:06;;;;;;;19.83;10.82;;;;;;;;;;4989589;28;98287;-71
2023/08/12 06:10:33;;;;;;;20.20;11.50;;;;;;;;;;4990170;28;98455;-70
2023/08/12 06:12:59;;;;;;;19.45;9.23;;;;;;;;;;4989797;28;99260;-71
2023/08/12 06:15:26;;;;;;;16.17;10.40;;;;;;;;;;4991854;28;99120;-71
2023/08/12 06:17:52;;;;;;;11.55;10.27;;;;;;;;;;4974777;28;99617;-72
2023/08/12 06:20:19;;;;;;;14.73;10.52;;;;;;;;;;4970336;27;98836;-72
2023/08/12 06:22:45;;;;;;;18.15;10.32;;;;;;;;;;4971845;27;98360;-73
2023/08/12 06:25:12;;;;;;;13.73;9.77;;;;;;;;;;4967041;28;100648;-73
2023/08/12 06:27:38;;;;;;;13.85;9.77;;;;;;;;;;4968833;28;98255;-71
2023/08/12 06:30:06;;;;;;;16.02;10.77;;;;;;;;;;4981132;28;98796;-72
2023/08/12 06:32:33;;;;;;;17.85;10.70;;;;;;;;;;4988833;28;98976;-72
2023/08/12 06:35:00;;;;;;;12.63;10.18;;;;;;;;;;4990058;28;98266;-70
2023/08/12 06:37:26;;;;;;;18.38;10.25;;;;;;;;;;4986609;28;99346;-71
2023/08/12 06:39:52;;;;;;;16.15;9.55;;;;;;;;;;4986286;28;99988;-72
2023/08/12 06:42:19;;;;;;;12.85;9.50;;;;;;;;;;4989547;28;98214;-71
2023/08/12 06:44:45;;;;;;;13.98;9.95;;;;;;;;;;4989711;28;99006;-70
2023/08/12 06:47:12;;;;;;;11.15;9.82;;;;;;;;;;4989024;28;98236;-70
2023/08/12 06:49:38;;;;;;;17.10;9.98;;;;;;;;;;4989452;28;98535;-71
2023/08/12 06:52:05;;;;;;;10.98;8.07;;;;;;;;;;4983873;28;99963;-72
2023/08/12 06:54:31;;;;;;;16.38;7.78;;;;;;;;;;4986089;28;98575;-71
2023/08/12 06:56:57;;;;;;;9.75;6.25;;;;;;;;;;4980354;28;98569;-73
2023/08/12 06:59:24;;;;;;;7.03;5.82;;;;;;;;;;4969102;28;100093;-72
2023/08/12 07:01:50;;;;;;;6.35;5.65;;;;;;;;;;4969478;28;98243;-71
2023/08/12 07:04:17;;;;;;;6.90;6.20;;;;;;;;;;4975814;28;99851;-71
2023/08/12 07:06:43;;;;;;;6.97;4.65;;;;;;;;;;4990511;28;99138;-70
2023/08/12 07:09:10;;;;;;;8.75;4.47;;;;;;;;;;4978634;28;98928;-71
2023/08/12 07:11:36;;;;;;;11.27;4.30;;;;;;;;;;4983171;28;98798;-70
2023/08/12 07:14:03;;;;;;;6.07;4.22;;;;;;;;;;4985012;28;98237;-71
2023/08/12 07:16:29;;;;;;;5.93;4.32;;;;;;;;;;4969019;28;98577;-71
2023/08/12 07:18:55;;;;;;;7.78;4.95;;;;;;;;;;4977245;28;99253;-70
2023/08/12 07:21:22;;;;;;;6.53;4.72;;;;;;;;;;4972190;28;98396;-70
2023/08/12 07:23:48;;;;;;;8.10;4.57;;;;;;;;;;4978803;28;98700;-70
2023/08/12 07:26:30;;;;;;;5.63;4.53;;;;;;;;;;4982108;28;98941;-70
2023/08/12 07:28:56;;;;;;;8.23;4.85;;;;;;;;;;4972749;28;98219;-72
2023/08/12 07:31:23;;;;;;;4.95;4.38;;;;;;;;;;4967814;28;98952;-70
2023/08/12 07:33:50;;;;;;;4.90;4.25;;;;;;;;;;4969314;28;98256;-70
2023/08/12 07:36:16;;;;;;;5.93;4.32;;;;;;;;;;4974931;28;98446;-70
2023/08/12 07:38:43;;;;;;;6.30;3.92;;;;;;;;;;4981461;28;99105;-70
2023/08/12 07:41:09;;;;;;;4.05;3.63;;;;;;;;;;4980004;28;98229;-71
2023/08/12 07:43:35;;;;;;;4.43;3.53;;;;;;;;;;4983903;28;99507;-71
2023/08/12 07:46:02;;;;;;;4.07;3.55;;;;;;;;;;4977171;28;98931;-70
2023/08/12 07:48:35;;;;;;;3.90;3.60;;;;;;;;;;4981762;28;98650;-73
2023/08/12 07:51:02;;;;;;;3.90;3.63;;;;;;;;;;4989927;28;99469;-70
2023/08/12 07:53:28;;;;;;;7.60;3.38;;;;;;;;;;4975968;28;98454;-71
2023/08/12 07:55:55;;;;;;;4.30;3.30;;;;;;;;;;4978801;28;98493;-71
2023/08/12 07:58:22;;;;;;;3.30;3.10;;;;;;;;;;4980931;28;100263;-70
2023/08/12 08:00:48;;;;;;;5.97;3.97;;;;;;;;;;4981465;28;98544;-70
2023/08/12 08:03:14;;;;;;;3.70;3.03;;;;;;;;;;4988426;28;98159;-71
2023/08/12 08:05:42;;;;;;;4.63;3.53;;;;;;;;;;4987657;28;99909;-71
2023/08/12 08:08:08;;;;;;;3.65;3.35;;;;;;;;;;4986961;28;98277;-72
2023/08/12 08:10:35;;;;;;;3.10;2.90;;;;;;;;;;4983211;28;99101;-70
2023/08/12 08:13:01;;;;;;;3.65;3.45;;;;;;;;;;4975309;28;99437;-72
2023/08/12 08:15:28;;;;;;;3.42;3.17;;;;;;;;;;4967823;28;98466;-71
2023/08/12 08:17:54;;;;;;;4.65;3.53;;;;;;;;;;4980783;28;98994;-71
2023/08/12 08:20:21;;;;;;;3.70;3.15;;;;;;;;;;4988569;28;98243;-71
2023/08/12 08:22:47;;;;;;;2.88;2.70;;;;;;;;;;4991096;28;98580;-70
2023/08/12 08:25:13;;;;;;;2.80;2.60;;;;;;;;;;4985392;28;99498;-70
2023/08/12 08:27:40;;;;;;;3.22;2.90;;;;;;;;;;4981857;28;98635;-70
2023/08/12 08:30:10;;;;;;;2.85;2.40;;;;;;;;;;4971180;28;98412;-71
2023/08/12 08:32:36;;;;;;;2.30;2.17;;;;;;;;;;4976284;28;100529;-71
2023/08/12 08:35:03;;;;;;;2.08;1.98;;;;;;;;;;4988192;28;98642;-72
2023/08/12 08:37:30;;;;;;;11.18;1.98;;;;;;;;;;4986829;28;99230;-70
2023/08/12 08:39:56;;;;;;;2.05;1.88;;;;;;;;;;4981985;28;98377;-70
2023/08/12 08:42:24;;;;;;;1.98;1.80;;;;;;;;;;4986850;28;99006;-70
2023/08/12 08:44:54;;;;;;;1.77;1.67;;;;;;;;;;4984364;28;100972;-70
2023/08/12 08:47:26;;;;;;;1.48;1.48;;;;;;;;;;4983213;28;99583;-70
2023/08/12 08:49:55;;;;;;;2.15;1.73;;;;;;;;;;4973880;28;100491;-72
2023/08/12 08:52:25;;;;;;;1.88;1.77;;;;;;;;;;4984396;28;100109;-71
2023/08/12 08:54:52;;;;;;;2.78;1.73;;;;;;;;;;4974904;28;98247;-71
2023/08/12 08:57:19;;;;;;;1.60;1.50;;;;;;;;;;4969642;28;99078;-71
2023/08/12 09:00:09;;;;;;;1.63;1.55;;;;;;;;;;4974626;28;99445;-72
2023/08/12 09:02:39;;;;;;;1.63;1.30;;;;;;;;;;4987445;28;98206;-71
2023/08/12 09:05:06;;;;;;;1.58;1.48;;;;;;;;;;4990321;28;99178;-70
2023/08/12 09:07:34;;;;;;;1.42;1.10;;;;;;;;;;4985804;28;100935;-70
2023/08/12 09:10:01;;;;;;;1.95;1.20;;;;;;;;;;4982359;28;98882;-71
2023/08/12 09:12:27;;;;;;;1.40;1.30;;;;;;;;;;4970765;28;100038;-70
2023/08/12 09:14:54;;;;;;;1.88;1.00;;;;;;;;;;4975688;28;98238;-72
2023/08/12 09:17:20;;;;;;;1.33;1.00;;;;;;;;;;4978430;28;98951;-71
2023/08/12 09:19:47;;;;;;;2.15;0.90;;;;;;;;;;4982158;28;98257;-71
2023/08/12 09:22:13;;;;;;;1.10;1.10;;;;;;;;;;4978413;28;98660;-69
2023/08/12 09:24:40;;;;;;;4.43;1.30;;;;;;;;;;4985749;28;99737;-71
2023/08/12 09:27:06;;;;;;;2.20;1.10;;;;;;;;;;4986727;28;99710;-70
2023/08/12 09:29:33;;;;;;;1.83;1.20;;;;;;;;;;4973147;28;99410;-70
2023/08/12 09:32:09;;;;;;;2.50;1.27;;;;;;;;;;4977364;28;99833;-71
2023/08/12 09:34:36;;;;;;;2.92;1.13;;;;;;;;;;4990817;28;98110;-70
2023/08/12 09:37:03;;;;;;;2.50;1.08;;;;;;;;;;4991220;28;98810;-69
2023/08/12 09:39:30;;;;;;;1.40;1.05;;;;;;;;;;4993369;28;98986;-70
2023/08/12 09:41:57;;;;;;;1.75;1.27;;;;;;;;;;4990964;28;98630;-70
2023/08/12 09:44:24;;;;;;;2.10;1.27;;;;;;;;;;4990458;28;99181;-69
2023/08/12 09:46:56;;;;;;;1.67;1.27;;;;;;;;;;4988358;28;98178;-70
2023/08/12 09:49:22;;;;;;;4.25;1.40;;;;;;;;;;4990100;28;98769;-70
2023/08/12 09:51:50;;;;;;;3.35;2.10;;;;;;;;;;4990267;28;99487;-71
2023/08/12 09:54:17;;;;;;;2.97;1.30;;;;;;;;;;4989817;28;98237;-71
2023/08/12 09:56:46;;;;;;;4.45;1.23;;;;;;;;;;4990435;28;99164;-70
2023/08/12 09:59:13;;;;;;;6.85;1.75;;;;;;;;;;4990103;28;99244;-70
2023/08/12 10:01:41;;;;;;;3.30;1.67;;;;;;;;;;4991260;28;98242;-69
2023/08/12 10:04:11;;;;;;;3.53;1.48;;;;;;;;;;4972636;28;100525;-71
2023/08/12 10:06:38;;;;;;;4.40;1.30;;;;;;;;;;4977784;28;98216;-70
2023/08/12 10:09:07;;;;;;;8.10;1.65;;;;;;;;;;4971068;28;99053;-69
2023/08/12 10:11:34;;;;;;;2.42;1.27;;;;;;;;;;4974232;28;100257;-71
2023/08/12 10:14:02;;;;;;;3.75;1.30;;;;;;;;;;4977527;28;98276;-70
2023/08/12 10:16:29;;;;;;;5.05;1.38;;;;;;;;;;4969792;28;98600;-70
2023/08/12 10:18:59;;;;;;;3.17;1.50;;;;;;;;;;4987221;28;98988;-70
2023/08/12 10:21:26;;;;;;;6.13;1.80;;;;;;;;;;4975042;28;98594;-70
2023/08/12 10:23:53;;;;;;;3.40;1.20;;;;;;;;;;4979952;28;98681;-70
2023/08/12 10:26:20;;;;;;;6.32;1.33;;;;;;;;;;4972139;28;98882;-70
2023/08/12 10:28:48;;;;;;;1.55;1.20;;;;;;;;;;4970882;28;98779;-69
2023/08/12 10:31:19;;;;;;;6.68;1.30;;;;;;;;;;4977527;28;98998;-71
2023/08/12 10:33:49;;;;;;;5.57;1.45;;;;;;;;;;4982445;28;99778;-71
2023/08/12 10:36:16;;;;;;;1.05;0.95;;;;;;;;;;4968589;28;98754;-71
2023/08/12 10:38:43;;;;;;;4.72;1.80;;;;;;;;;;4980438;28;99981;-71
2023/08/12 10:41:19;;;;;;;1.90;1.30;;;;;;;;;;4979045;28;98245;-71
2023/08/12 10:43:49;;;;;;;5.75;1.85;;;;;;;;;;4978456;28;99875;-69
2023/08/12 10:46:22;;;;;;;6.72;1.63;;;;;;;;;;4982173;28;99482;-70
2023/08/12 10:49:00;;;;;;;3.65;1.60;;;;;;;;;;4982210;28;99336;-70
2023/08/12 10:51:39;;;;;;;2.85;1.30;;;;;;;;;;4988611;28;99696;-72
2023/08/12 10:54:22;;;;;;;2.35;1.20;;;;;;;;;;4989614;28;97904;-71
2023/08/12 10:57:03;;;;;;;4.55;1.40;;;;;;;;;;4986716;28;98576;-70
2023/08/12 10:59:30;;;;;;;;;;;;;;;;;;4986369;28;98086;-71
2023/08/12 11:02:05;;;;;;;3.42;1.42;;;;;;;;;;4986566;28;120557;-73
2023/08/12 11:04:37;;;;;;;3.25;1.80;;;;;;;;;;4984214;28;98565;-71
2023/08/12 11:07:14;;;;;;;4.20;1.67;;;;;;;;;;4976850;28;100008;-71
2023/08/12 11:09:40;;;;;;;4.10;1.33;;;;;;;;;;4967940;28;99348;-72
2023/08/12 11:12:08;;;;;;;3.10;1.70;;;;;;;;;;4968233;28;99169;-72
2023/08/12 11:14:49;;;;;;;3.42;1.55;;;;;;;;;;4975441;28;98796;-71
2023/08/12 11:17:15;;;;;;;6.32;1.42;;;;;;;;;;4984066;28;98568;-72
2023/08/12 11:19:42;;;;;;;5.35;1.60;;;;;;;;;;4988935;28;99087;-72
2023/08/12 11:22:12;;;;;;;1.67;1.25;;;;;;;;;;4982478;28;98228;-71
2023/08/12 11:24:41;;;;;;;3.03;1.50;;;;;;;;;;4969435;28;98697;-70
2023/08/12 11:27:11;;;;;;;5.22;2.00;;;;;;;;;;4971242;28;99116;-71
2023/08/12 11:29:38;;;;;;;2.00;1.50;;;;;;;;;;4979974;28;98310;-71
2023/08/12 11:32:05;;;;;;;3.80;1.73;;;;;;;;;;4967273;28;99210;-71
2023/08/12 11:34:32;;;;;;;5.28;1.75;;;;;;;;;;4968324;28;98312;-71
2023/08/12 11:36:58;;;;;;;6.50;1.30;;;;;;;;;;4969884;28;98845;-72
2023/08/12 11:39:25;;;;;;;3.67;1.70;;;;;;;;;;4975899;28;100151;-72
2023/08/12 11:41:52;;;;;;;4.40;1.33;;;;;;;;;;4988184;28;98379;-71
2023/08/12 11:44:22;;;;;;;5.80;1.60;;;;;;;;;;4989100;28;99019;-70
2023/08/12 11:46:49;;;;;;;3.40;1.63;;;;;;;;;;4975275;28;98900;-72
2023/08/12 11:49:15;;;;;;;3.53;1.40;;;;;;;;;;4988258;28;98232;-72
2023/08/12 11:51:43;;;;;;;3.17;1.00;;;;;;;;;;4977548;28;98680;-71
2023/08/12 11:54:10;;;;;;;4.65;1.73;;;;;;;;;;4980526;28;98366;-71
2023/08/12 11:56:36;;;;;;;5.95;1.67;;;;;;;;;;4980430;28;98610;-71
2023/08/12 11:59:05;;;;;;;5.65;1.73;;;;;;;;;;4979135;28;99234;-71
2023/08/12 12:01:31;;;;;;;7.85;1.55;;;;;;;;;;4980312;28;99686;-69
2023/08/12 12:04:01;;;;;;;5.30;1.80;;;;;;;;;;4975883;28;98681;-70
2023/08/12 12:06:31;;;;;;;1.42;1.17;;;;;;;;;;4971259;28;98878;-72
2023/08/12 12:09:05;;;;;;;2.92;1.23;;;;;;;;;;4978625;28;99033;-69
2023/08/12 12:11:32;;;;;;;5.75;2.28;;;;;;;;;;4982837;28;98665;-69
2023/08/12 12:14:02;;;;;;;3.50;1.60;;;;;;;;;;4991277;28;99151;-69
2023/08/12 12:16:42;;;;;;;4.88;1.65;;;;;;;;;;4991073;28;98708;-69
2023/08/12 12:19:09;;;;;;;9.77;1.63;;;;;;;;;;4984597;28;98865;-69
2023/08/12 12:21:40;;;;;;;4.82;1.60;;;;;;;;;;4984396;28;98799;-70
2023/08/12 12:24:06;;;;;;;6.90;2.00;;;;;;;;;;4979402;28;98677;-71
2023/08/12 12:26:34;;;;;;;4.80;1.38;;;;;;;;;;4985020;28;100156;-70
2023/08/12 12:29:01;;;;;;;4.40;1.38;;;;;;;;;;4977522;28;98239;-69
2023/08/12 12:31:27;;;;;;;4.28;1.23;;;;;;;;;;4991143;28;99362;-71
2023/08/12 12:33:53;;;;;;;4.93;1.80;;;;;;;;;;4991984;28;98946;-69
2023/08/12 12:36:20;;;;;;;2.22;1.00;;;;;;;;;;4993874;28;98324;-71
2023/08/12 12:38:46;;;;;;;2.20;1.23;;;;;;;;;;4991852;28;99330;-70
2023/08/12 12:41:14;;;;;;;5.03;1.85;;;;;;;;;;4978367;28;98229;-70
2023/08/12 12:43:40;;;;;;;4.80;1.48;;;;;;;;;;4971096;28;99341;-72
2023/08/12 12:46:07;;;;;;;3.95;1.77;;;;;;;;;;4972463;28;100211;-70
2023/08/12 12:48:34;;;;;;;4.68;1.33;;;;;;;;;;4971455;28;98203;-70
2023/08/12 12:51:00;;;;;;;8.15;2.00;;;;;;;;;;4971681;28;99099;-70
2023/08/12 12:53:27;;;;;;;5.45;1.90;;;;;;;;;;4971314;28;99058;-72
2023/08/12 12:55:53;;;;;;;5.95;1.85;;;;;;;;;;4973957;28;98234;-71
2023/08/12 12:58:23;;;;;;;3.30;1.85;;;;;;;;;;4971827;28;98948;-71
2023/08/12 13:00:49;;;;;;;1.85;1.35;;;;;;;;;;4970433;28;98324;-70
2023/08/12 13:03:16;;;;;;;9.77;2.58;;;;;;;;;;4975110;28;99681;-70
2023/08/12 13:05:42;;;;;;;7.60;1.50;;;;;;;;;;4981295;28;100005;-73
2023/08/12 13:08:09;;;;;;;5.10;1.60;;;;;;;;;;4981410;28;98719;-72
2023/08/12 13:10:35;;;;;;;5.07;1.83;;;;;;;;;;4990323;28;99362;-72
2023/08/12 13:13:03;;;;;;;4.72;2.75;;;;;;;;;;4990398;28;100206;-71
2023/08/12 13:15:29;;;;;;;7.53;4.03;;;;;;;;;;4972012;28;98246;-70
2023/08/12 13:17:56;;;;;;;7.40;1.60;;;;;;;;;;4978425;28;98695;-71
2023/08/12 13:20:22;;;;;;;6.03;1.83;;;;;;;;;;4990761;28;97990;-70
2023/08/12 13:22:50;;;;;;;7.25;1.77;;;;;;;;;;4990949;28;98807;-71
2023/08/12 13:25:16;;;;;;;7.60;2.20;;;;;;;;;;4974084;28;99203;-70
2023/08/12 13:27:43;;;;;;;4.00;1.48;;;;;;;;;;4982660;28;99010;-70
2023/08/12 13:30:11;;;;;;;6.65;1.75;;;;;;;;;;4990115;28;98588;-70
2023/08/12 13:32:37;;;;;;;11.38;3.53;;;;;;;;;;4990064;28;99079;-70
2023/08/12 13:35:05;;;;;;;5.30;1.60;;;;;;;;;;4990664;28;98300;-70
2023/08/12 13:37:34;;;;;;;7.80;1.63;;;;;;;;;;4990403;28;98616;-71
2023/08/12 13:40:00;;;;;;;7.45;1.80;;;;;;;;;;4987351;28;99983;-71
2023/08/12 13:42:27;;;;;;;7.28;1.92;;;;;;;;;;4990659;28;98672;-70
2023/08/12 13:44:53;;;;;;;5.25;1.42;;;;;;;;;;4990089;28;99887;-71
2023/08/12 13:47:20;;;;;;;4.50;1.55;;;;;;;;;;4990685;28;98170;-69
2023/08/12 13:49:46;;;;;;;3.22;1.63;;;;;;;;;;4990677;28;99363;-72
2023/08/12 13:52:13;;;;;;;6.03;2.20;;;;;;;;;;4989163;28;100012;-70
2023/08/12 13:54:39;;;;;;;4.50;1.88;;;;;;;;;;4989790;28;98245;-72
2023/08/12 13:57:06;;;;;;;5.80;1.45;;;;;;;;;;4975725;28;98874;-72
2023/08/12 13:59:32;;;;;;;7.57;1.88;;;;;;;;;;4984531;28;99909;-73
2023/08/12 14:01:59;;;;;;;6.00;2.05;;;;;;;;;;4985839;28;98194;-71
2023/08/12 14:04:25;;;;;;;9.40;2.03;;;;;;;;;;4977091;28;100239;-71
2023/08/12 14:06:52;;;;;;;7.45;1.67;;;;;;;;;;4982715;28;98701;-71
2023/08/12 14:09:19;;;;;;;8.27;2.08;;;;;;;;;;4985109;28;98996;-72
2023/08/12 14:11:46;;;;;;;5.43;1.77;;;;;;;;;;4986296;28;99155;-71
2023/08/12 14:14:13;;;;;;;4.28;1.75;;;;;;;;;;4971054;28;99828;-71
2023/08/12 14:16:39;;;;;;;5.05;1.75;;;;;;;;;;4969664;28;98551;-70
2023/08/12 14:19:06;;;;;;;7.05;2.70;;;;;;;;;;4984677;28;98973;-71
2023/08/12 14:21:32;;;;;;;7.65;2.40;;;;;;;;;;4986598;28;98257;-71
2023/08/12 14:23:59;;;;;;;4.45;1.38;;;;;;;;;;4972307;28;102690;-70
2023/08/12 14:26:25;;;;;;;5.25;2.00;;;;;;;;;;4969952;28;98117;-70
2023/08/12 14:28:51;;;;;;;2.83;1.80;;;;;;;;;;4969468;28;99887;-71
2023/08/12 14:31:18;;;;;;;7.78;2.20;;;;;;;;;;4972304;28;99199;-71
2023/08/12 14:33:45;;;;;;;7.47;2.00;;;;;;;;;;4979964;28;99599;-72
2023/08/12 14:36:11;;;;;;;7.45;1.88;;;;;;;;;;4988854;28;99229;-71